sensor_id;sensor_type;location;lat;lon;timestamp;temperature;humidity
12436;DHT22;6282;51.440;6.938;2022-09-09T00:02:18;15.00;99.90
12436;DHT22;6282;51.440;6.938;2022-09-09T00:04:52;15.00;99.90
12436;DHT22;6282;51.440;6.938;2022-09-09T00:07:25;15.00;99.90
12436;DHT22;6282;51.440;6.938;2022-09-09T00:10:05;15.00;99.90
12436;DHT22;6282;51.440;6.938;2022-09-09T00:12:39;14.90;99.90
12436;DHT22;6282;51.440;6.938;2022-09-09T00:15:12;15.00;99.90
12436;DHT22;6282;51.440;6.938;2022-09-09T00:17:47;14.90;99.90
12436;DHT22;6282;51.440;6.938;2022-09-09T00:20:20;14.90;99.90
12436;DHT22;6282;51.440;6.938;2022-09-09T00:22:53;14.90;99.90
12436;DHT22;6282;51.440;6.938;2022-09-09T00:25:29;14.90;99.90
12436;DHT22;6282;51.440;6.938;2022-09-09T00:28:00;15.00;99.90
12436;DHT22;6282;51.440;6.938;2022-09-09T00:30:32;15.10;99.90
12436;DHT22;6282;51.440;6.938;2022-09-09T00:33:09;14.90;99.90
12436;DHT22;6282;51.440;6.938;2022-09-09T00:35:38;14.90;99.90
12436;DHT22;6282;51.440;6.938;2022-09-09T00:38:12;14.80;99.90
12436;DHT22;6282;51.440;6.938;2022-09-09T00:40:49;14.90;99.90
12436;DHT22;6282;51.440;6.938;2022-09-09T00:43:26;14.80;99.90
12436;DHT22;6282;51.440;6.938;2022-09-09T00:48:48;14.90;99.90
12436;DHT22;6282;51.440;6.938;2022-09-09T00:51:25;15.00;99.90
12436;DHT22;6282;51.440;6.938;2022-09-09T00:56:51;15.20;99.90
12436;DHT22;6282;51.440;6.938;2022-09-09T00:59:26;15.00;99.90
12436;DHT22;6282;51.440;6.938;2022-09-09T01:01:55;15.10;99.90
12436;DHT22;6282;51.440;6.938;2022-09-09T01:04:26;15.10;99.90
12436;DHT22;6282;51.440;6.938;2022-09-09T01:07:04;15.30;99.90
12436;DHT22;6282;51.440;6.938;2022-09-09T01:09:37;15.30;99.90
12436;DHT22;6282;51.440;6.938;2022-09-09T01:12:14;15.20;99.90
12436;DHT22;6282;51.440;6.938;2022-09-09T01:14:45;15.20;99.90
12436;DHT22;6282;51.440;6.938;2022-09-09T01:17:17;15.10;99.90
12436;DHT22;6282;51.440;6.938;2022-09-09T01:19:55;15.10;99.90
12436;DHT22;6282;51.440;6.938;2022-09-09T01:22:35;15.00;99.90
12436;DHT22;6282;51.440;6.938;2022-09-09T01:25:19;15.00;99.90
12436;DHT22;6282;51.440;6.938;2022-09-09T01:27:51;15.00;99.90
12436;DHT22;6282;51.440;6.938;2022-09-09T01:30:19;15.00;99.90
12436;DHT22;6282;51.440;6.938;2022-09-09T01:32:49;14.90;99.90
12436;DHT22;6282;51.440;6.938;2022-09-09T01:35:29;15.00;99.90
12436;DHT22;6282;51.440;6.938;2022-09-09T01:37:58;15.10;99.90
12436;DHT22;6282;51.440;6.938;2022-09-09T01:40:25;15.10;99.90
12436;DHT22;6282;51.440;6.938;2022-09-09T01:42:54;15.10;99.90
12436;DHT22;6282;51.440;6.938;2022-09-09T01:45:21;15.10;99.90
12436;DHT22;6282;51.440;6.938;2022-09-09T01:47:49;15.10;99.90
12436;DHT22;6282;51.440;6.938;2022-09-09T01:50:17;15.00;99.90
12436;DHT22;6282;51.440;6.938;2022-09-09T01:52:44;15.00;99.90
12436;DHT22;6282;51.440;6.938;2022-09-09T01:55:13;15.00;99.90
12436;DHT22;6282;51.440;6.938;2022-09-09T01:57:45;15.00;99.90
12436;DHT22;6282;51.440;6.938;2022-09-09T02:00:18;15.00;99.90
12436;DHT22;6282;51.440;6.938;2022-09-09T02:02:52;15.00;99.90
12436;DHT22;6282;51.440;6.938;2022-09-09T02:05:30;15.00;99.90
12436;DHT22;6282;51.440;6.938;2022-09-09T02:08:05;15.10;99.90
12436;DHT22;6282;51.440;6.938;2022-09-09T02:10:36;15.00;99.90
12436;DHT22;6282;51.440;6.938;2022-09-09T02:13:10;15.00;99.90
12436;DHT22;6282;51.440;6.938;2022-09-09T02:15:44;14.90;99.90
12436;DHT22;6282;51.440;6.938;2022-09-09T02:18:15;14.90;99.90
12436;DHT22;6282;51.440;6.938;2022-09-09T02:20:45;15.00;99.90
12436;DHT22;6282;51.440;6.938;2022-09-09T02:23:14;15.00;99.90
12436;DHT22;6282;51.440;6.938;2022-09-09T02:25:41;15.00;99.90
12436;DHT22;6282;51.440;6.938;2022-09-09T02:28:10;15.00;99.90
12436;DHT22;6282;51.440;6.938;2022-09-09T02:30:40;15.00;99.90
12436;DHT22;6282;51.440;6.938;2022-09-09T02:33:08;15.20;99.90
12436;DHT22;6282;51.440;6.938;2022-09-09T02:35:37;15.20;99.90
12436;DHT22;6282;51.440;6.938;2022-09-09T02:38:08;15.20;99.90
12436;DHT22;6282;51.440;6.938;2022-09-09T02:40:37;15.20;99.90
12436;DHT22;6282;51.440;6.938;2022-09-09T02:43:04;15.20;99.90
12436;DHT22;6282;51.440;6.938;2022-09-09T02:45:34;15.20;99.90
12436;DHT22;6282;51.440;6.938;2022-09-09T02:48:09;15.20;99.90
12436;DHT22;6282;51.440;6.938;2022-09-09T02:50:43;15.30;99.90
12436;DHT22;6282;51.440;6.938;2022-09-09T02:53:16;15.30;99.90
12436;DHT22;6282;51.440;6.938;2022-09-09T02:55:46;15.30;99.90
12436;DHT22;6282;51.440;6.938;2022-09-09T02:58:17;15.30;99.90
12436;DHT22;6282;51.440;6.938;2022-09-09T03:00:46;15.40;99.90
12436;DHT22;6282;51.440;6.938;2022-09-09T03:03:15;15.30;99.90
12436;DHT22;6282;51.440;6.938;2022-09-09T03:05:43;15.30;99.90
12436;DHT22;6282;51.440;6.938;2022-09-09T03:08:10;15.20;99.90
12436;DHT22;6282;51.440;6.938;2022-09-09T03:10:37;15.30;99.90
12436;DHT22;6282;51.440;6.938;2022-09-09T03:13:04;15.30;99.90
12436;DHT22;6282;51.440;6.938;2022-09-09T03:15:31;15.40;99.90
12436;DHT22;6282;51.440;6.938;2022-09-09T03:17:58;15.30;99.90
12436;DHT22;6282;51.440;6.938;2022-09-09T03:20:28;15.30;99.90
12436;DHT22;6282;51.440;6.938;2022-09-09T03:22:56;15.30;99.90
12436;DHT22;6282;51.440;6.938;2022-09-09T03:25:23;15.20;99.90
12436;DHT22;6282;51.440;6.938;2022-09-09T03:27:51;15.10;99.90
12436;DHT22;6282;51.440;6.938;2022-09-09T03:30:20;15.30;99.90
12436;DHT22;6282;51.440;6.938;2022-09-09T03:32:46;15.30;99.90
12436;DHT22;6282;51.440;6.938;2022-09-09T03:35:13;15.20;99.90
12436;DHT22;6282;51.440;6.938;2022-09-09T03:37:42;15.30;99.90
12436;DHT22;6282;51.440;6.938;2022-09-09T03:40:09;15.30;99.90
12436;DHT22;6282;51.440;6.938;2022-09-09T03:42:36;15.20;99.90
12436;DHT22;6282;51.440;6.938;2022-09-09T03:45:04;15.20;99.90
12436;DHT22;6282;51.440;6.938;2022-09-09T03:47:31;15.30;99.90
12436;DHT22;6282;51.440;6.938;2022-09-09T03:49:58;15.30;99.90
12436;DHT22;6282;51.440;6.938;2022-09-09T03:52:25;15.40;99.90
12436;DHT22;6282;51.440;6.938;2022-09-09T03:54:54;15.30;99.90
12436;DHT22;6282;51.440;6.938;2022-09-09T03:57:22;15.30;99.90
12436;DHT22;6282;51.440;6.938;2022-09-09T03:59:48;15.30;99.90
12436;DHT22;6282;51.440;6.938;2022-09-09T04:02:15;15.20;99.90
12436;DHT22;6282;51.440;6.938;2022-09-09T04:04:42;15.30;99.90
12436;DHT22;6282;51.440;6.938;2022-09-09T04:07:09;15.20;99.90
12436;DHT22;6282;51.440;6.938;2022-09-09T04:09:37;15.20;99.90
12436;DHT22;6282;51.440;6.938;2022-09-09T04:12:05;15.10;99.90
12436;DHT22;6282;51.440;6.938;2022-09-09T04:14:32;15.10;99.90
12436;DHT22;6282;51.440;6.938;2022-09-09T04:16:59;15.10;99.90
12436;DHT22;6282;51.440;6.938;2022-09-09T04:19:26;15.10;99.90
12436;DHT22;6282;51.440;6.938;2022-09-09T04:21:53;15.00;99.90
12436;DHT22;6282;51.440;6.938;2022-09-09T04:24:20;15.00;99.90
12436;DHT22;6282;51.440;6.938;2022-09-09T04:26:47;15.10;99.90
12436;DHT22;6282;51.440;6.938;2022-09-09T04:29:15;15.10;99.90
12436;DHT22;6282;51.440;6.938;2022-09-09T04:31:42;15.00;99.90
12436;DHT22;6282;51.440;6.938;2022-09-09T04:34:10;15.00;99.90
12436;DHT22;6282;51.440;6.938;2022-09-09T04:36:36;15.10;99.90
12436;DHT22;6282;51.440;6.938;2022-09-09T04:39:06;15.10;99.90
12436;DHT22;6282;51.440;6.938;2022-09-09T04:41:33;15.10;99.90
12436;DHT22;6282;51.440;6.938;2022-09-09T04:44:03;15.10;99.90
12436;DHT22;6282;51.440;6.938;2022-09-09T04:46:31;15.10;99.90
12436;DHT22;6282;51.440;6.938;2022-09-09T04:48:59;15.20;99.90
12436;DHT22;6282;51.440;6.938;2022-09-09T04:51:26;15.20;99.90
12436;DHT22;6282;51.440;6.938;2022-09-09T04:53:53;15.20;99.90
12436;DHT22;6282;51.440;6.938;2022-09-09T04:56:20;15.30;99.90
12436;DHT22;6282;51.440;6.938;2022-09-09T04:58:47;15.30;99.90
12436;DHT22;6282;51.440;6.938;2022-09-09T05:01:15;15.40;99.90
12436;DHT22;6282;51.440;6.938;2022-09-09T05:03:44;15.30;99.90
12436;DHT22;6282;51.440;6.938;2022-09-09T05:06:12;15.30;99.90
12436;DHT22;6282;51.440;6.938;2022-09-09T05:08:41;15.40;99.90
12436;DHT22;6282;51.440;6.938;2022-09-09T05:11:15;15.40;99.90
12436;DHT22;6282;51.440;6.938;2022-09-09T05:13:43;15.40;99.90
12436;DHT22;6282;51.440;6.938;2022-09-09T05:16:09;15.40;99.90
12436;DHT22;6282;51.440;6.938;2022-09-09T05:18:37;15.50;99.90
12436;DHT22;6282;51.440;6.938;2022-09-09T05:21:05;15.50;99.90
12436;DHT22;6282;51.440;6.938;2022-09-09T05:23:32;15.40;99.90
12436;DHT22;6282;51.440;6.938;2022-09-09T05:26:00;15.50;99.90
12436;DHT22;6282;51.440;6.938;2022-09-09T05:28:27;15.50;99.90
12436;DHT22;6282;51.440;6.938;2022-09-09T05:30:58;15.50;99.90
12436;DHT22;6282;51.440;6.938;2022-09-09T05:33:26;15.50;99.90
12436;DHT22;6282;51.440;6.938;2022-09-09T05:36:00;15.60;99.90
12436;DHT22;6282;51.440;6.938;2022-09-09T05:38:30;15.60;99.90
12436;DHT22;6282;51.440;6.938;2022-09-09T05:40:57;15.60;99.90
12436;DHT22;6282;51.440;6.938;2022-09-09T05:43:25;15.70;99.90
12436;DHT22;6282;51.440;6.938;2022-09-09T05:46:00;15.60;99.90
12436;DHT22;6282;51.440;6.938;2022-09-09T05:48:28;15.70;99.90
12436;DHT22;6282;51.440;6.938;2022-09-09T05:50:56;15.70;99.90
12436;DHT22;6282;51.440;6.938;2022-09-09T05:53:23;15.80;99.90
12436;DHT22;6282;51.440;6.938;2022-09-09T05:55:58;15.80;99.90
12436;DHT22;6282;51.440;6.938;2022-09-09T05:58:25;15.70;99.90
12436;DHT22;6282;51.440;6.938;2022-09-09T06:00:52;15.70;99.90
12436;DHT22;6282;51.440;6.938;2022-09-09T06:03:20;15.80;99.90
12436;DHT22;6282;51.440;6.938;2022-09-09T06:05:57;15.80;99.90
12436;DHT22;6282;51.440;6.938;2022-09-09T06:08:24;15.90;99.90
12436;DHT22;6282;51.440;6.938;2022-09-09T06:10:52;15.90;99.90
12436;DHT22;6282;51.440;6.938;2022-09-09T06:13:19;15.90;99.90
12436;DHT22;6282;51.440;6.938;2022-09-09T06:15:49;16.00;99.90
12436;DHT22;6282;51.440;6.938;2022-09-09T06:18:17;16.00;99.90
12436;DHT22;6282;51.440;6.938;2022-09-09T06:20:53;16.10;99.90
12436;DHT22;6282;51.440;6.938;2022-09-09T06:23:20;16.00;99.90
12436;DHT22;6282;51.440;6.938;2022-09-09T06:25:47;16.10;99.90
12436;DHT22;6282;51.440;6.938;2022-09-09T06:28:16;16.10;99.90
12436;DHT22;6282;51.440;6.938;2022-09-09T06:30:42;16.10;99.90
12436;DHT22;6282;51.440;6.938;2022-09-09T06:33:10;16.20;99.90
12436;DHT22;6282;51.440;6.938;2022-09-09T06:35:37;16.20;99.90
12436;DHT22;6282;51.440;6.938;2022-09-09T06:38:03;16.20;99.90
12436;DHT22;6282;51.440;6.938;2022-09-09T06:40:31;16.20;99.90
12436;DHT22;6282;51.440;6.938;2022-09-09T06:42:59;16.30;99.90
12436;DHT22;6282;51.440;6.938;2022-09-09T06:45:28;16.40;99.90
12436;DHT22;6282;51.440;6.938;2022-09-09T06:47:55;16.30;99.90
12436;DHT22;6282;51.440;6.938;2022-09-09T06:50:22;16.40;99.90
12436;DHT22;6282;51.440;6.938;2022-09-09T06:52:49;16.50;99.90
12436;DHT22;6282;51.440;6.938;2022-09-09T06:55:17;16.50;99.90
12436;DHT22;6282;51.440;6.938;2022-09-09T06:57:45;16.60;99.90
12436;DHT22;6282;51.440;6.938;2022-09-09T07:00:12;16.70;99.90
12436;DHT22;6282;51.440;6.938;2022-09-09T07:02:41;17.10;99.90
12436;DHT22;6282;51.440;6.938;2022-09-09T07:05:08;17.60;99.90
12436;DHT22;6282;51.440;6.938;2022-09-09T07:07:35;17.50;99.90
12436;DHT22;6282;51.440;6.938;2022-09-09T07:10:03;17.50;99.90
12436;DHT22;6282;51.440;6.938;2022-09-09T07:12:30;19.60;99.90
12436;DHT22;6282;51.440;6.938;2022-09-09T07:14:57;21.40;99.90
12436;DHT22;6282;51.440;6.938;2022-09-09T07:17:24;20.50;99.90
12436;DHT22;6282;51.440;6.938;2022-09-09T07:19:52;21.80;99.90
12436;DHT22;6282;51.440;6.938;2022-09-09T07:22:19;21.00;99.90
12436;DHT22;6282;51.440;6.938;2022-09-09T07:24:46;21.80;99.90
12436;DHT22;6282;51.440;6.938;2022-09-09T07:27:14;21.60;99.90
12436;DHT22;6282;51.440;6.938;2022-09-09T07:29:41;22.10;11.80
12436;DHT22;6282;51.440;6.938;2022-09-09T07:32:08;21.90;44.30
12436;DHT22;6282;51.440;6.938;2022-09-09T07:34:35;22.20;1.00
12436;DHT22;6282;51.440;6.938;2022-09-09T07:37:06;21.70;99.90
12436;DHT22;6282;51.440;6.938;2022-09-09T07:39:37;22.70;1.00
12436;DHT22;6282;51.440;6.938;2022-09-09T07:42:04;20.50;99.90
12436;DHT22;6282;51.440;6.938;2022-09-09T07:44:31;19.60;99.90
12436;DHT22;6282;51.440;6.938;2022-09-09T07:47:00;18.90;1.00
12436;DHT22;6282;51.440;6.938;2022-09-09T07:49:27;19.30;1.00
12436;DHT22;6282;51.440;6.938;2022-09-09T07:51:54;19.40;1.00
12436;DHT22;6282;51.440;6.938;2022-09-09T07:54:22;19.40;99.90
12436;DHT22;6282;51.440;6.938;2022-09-09T07:56:50;19.80;99.90
12436;DHT22;6282;51.440;6.938;2022-09-09T07:59:17;19.90;99.90
12436;DHT22;6282;51.440;6.938;2022-09-09T08:01:46;21.30;1.00
12436;DHT22;6282;51.440;6.938;2022-09-09T08:04:15;22.00;99.90
12436;DHT22;6282;51.440;6.938;2022-09-09T08:06:43;21.10;99.90
12436;DHT22;6282;51.440;6.938;2022-09-09T08:09:11;20.10;1.00
12436;DHT22;6282;51.440;6.938;2022-09-09T08:11:40;19.20;99.90
12436;DHT22;6282;51.440;6.938;2022-09-09T08:14:08;19.40;99.90
12436;DHT22;6282;51.440;6.938;2022-09-09T08:16:36;18.60;99.90
12436;DHT22;6282;51.440;6.938;2022-09-09T08:19:04;18.50;99.90
12436;DHT22;6282;51.440;6.938;2022-09-09T08:21:34;19.60;1.00
12436;DHT22;6282;51.440;6.938;2022-09-09T08:24:03;20.10;99.90
12436;DHT22;6282;51.440;6.938;2022-09-09T08:26:32;20.60;1.00
12436;DHT22;6282;51.440;6.938;2022-09-09T08:29:02;20.20;99.90
12436;DHT22;6282;51.440;6.938;2022-09-09T08:31:31;19.80;99.90
12436;DHT22;6282;51.440;6.938;2022-09-09T08:34:00;20.00;99.90
12436;DHT22;6282;51.440;6.938;2022-09-09T08:36:30;20.20;99.90
12436;DHT22;6282;51.440;6.938;2022-09-09T08:38:59;19.70;1.00
12436;DHT22;6282;51.440;6.938;2022-09-09T08:41:46;19.70;1.00
12436;DHT22;6282;51.440;6.938;2022-09-09T08:44:23;20.00;99.90
12436;DHT22;6282;51.440;6.938;2022-09-09T08:46:59;20.30;1.00
12436;DHT22;6282;51.440;6.938;2022-09-09T08:49:43;21.20;99.90
12436;DHT22;6282;51.440;6.938;2022-09-09T08:52:17;20.30;99.90
12436;DHT22;6282;51.440;6.938;2022-09-09T08:54:46;19.20;99.90
12436;DHT22;6282;51.440;6.938;2022-09-09T08:57:18;19.90;99.90
12436;DHT22;6282;51.440;6.938;2022-09-09T08:59:48;19.60;99.90
12436;DHT22;6282;51.440;6.938;2022-09-09T09:02:21;19.90;99.90
12436;DHT22;6282;51.440;6.938;2022-09-09T09:05:05;20.40;99.90
12436;DHT22;6282;51.440;6.938;2022-09-09T09:07:46;20.60;1.00
12436;DHT22;6282;51.440;6.938;2022-09-09T09:10:29;20.40;1.00
12436;DHT22;6282;51.440;6.938;2022-09-09T09:12:57;20.30;1.00
12436;DHT22;6282;51.440;6.938;2022-09-09T09:15:31;20.00;1.00
12436;DHT22;6282;51.440;6.938;2022-09-09T09:18:02;20.10;1.00
12436;DHT22;6282;51.440;6.938;2022-09-09T09:20:35;19.60;1.00
12436;DHT22;6282;51.440;6.938;2022-09-09T09:23:05;19.40;1.00
12436;DHT22;6282;51.440;6.938;2022-09-09T09:25:35;19.20;31.70
12436;DHT22;6282;51.440;6.938;2022-09-09T09:28:12;19.20;36.00
12436;DHT22;6282;51.440;6.938;2022-09-09T09:30:49;19.40;1.00
12436;DHT22;6282;51.440;6.938;2022-09-09T09:33:21;19.20;1.00
12436;DHT22;6282;51.440;6.938;2022-09-09T09:35:49;19.20;1.00
12436;DHT22;6282;51.440;6.938;2022-09-09T09:38:18;19.10;1.00
12436;DHT22;6282;51.440;6.938;2022-09-09T09:40:50;19.10;1.00
12436;DHT22;6282;51.440;6.938;2022-09-09T09:43:25;19.00;1.00
12436;DHT22;6282;51.440;6.938;2022-09-09T09:45:54;18.90;1.00
12436;DHT22;6282;51.440;6.938;2022-09-09T09:48:23;18.80;1.00
12436;DHT22;6282;51.440;6.938;2022-09-09T09:50:52;18.80;1.00
12436;DHT22;6282;51.440;6.938;2022-09-09T09:53:23;18.90;1.00
12436;DHT22;6282;51.440;6.938;2022-09-09T09:55:55;19.00;1.00
12436;DHT22;6282;51.440;6.938;2022-09-09T09:58:25;19.10;1.00
12436;DHT22;6282;51.440;6.938;2022-09-09T10:00:54;19.00;99.90
12436;DHT22;6282;51.440;6.938;2022-09-09T10:03:26;18.70;99.90
12436;DHT22;6282;51.440;6.938;2022-09-09T10:05:53;18.80;99.90
12436;DHT22;6282;51.440;6.938;2022-09-09T10:08:22;18.80;99.90
12436;DHT22;6282;51.440;6.938;2022-09-09T10:11:01;18.90;1.00
12436;DHT22;6282;51.440;6.938;2022-09-09T10:13:36;18.90;1.00
12436;DHT22;6282;51.440;6.938;2022-09-09T10:16:21;19.30;99.90
12436;DHT22;6282;51.440;6.938;2022-09-09T10:18:59;19.80;99.90
12436;DHT22;6282;51.440;6.938;2022-09-09T10:21:51;20.20;99.90
12436;DHT22;6282;51.440;6.938;2022-09-09T10:27:23;20.20;99.90
12436;DHT22;6282;51.440;6.938;2022-09-09T10:30:09;19.80;1.00
12436;DHT22;6282;51.440;6.938;2022-09-09T10:32:46;19.70;1.00
12436;DHT22;6282;51.440;6.938;2022-09-09T10:35:22;19.80;1.00
12436;DHT22;6282;51.440;6.938;2022-09-09T10:38:12;19.70;7.20
12436;DHT22;6282;51.440;6.938;2022-09-09T10:40:48;19.60;47.30
12436;DHT22;6282;51.440;6.938;2022-09-09T10:43:46;19.60;57.00
12436;DHT22;6282;51.440;6.938;2022-09-09T10:46:25;19.70;1.00
12436;DHT22;6282;51.440;6.938;2022-09-09T10:49:08;20.10;1.00
12436;DHT22;6282;51.440;6.938;2022-09-09T10:51:44;20.00;1.00
12436;DHT22;6282;51.440;6.938;2022-09-09T10:54:28;19.80;1.00
12436;DHT22;6282;51.440;6.938;2022-09-09T10:56:59;19.70;1.00
12436;DHT22;6282;51.440;6.938;2022-09-09T10:59:31;19.50;1.00
12436;DHT22;6282;51.440;6.938;2022-09-09T11:02:04;19.80;1.00
12436;DHT22;6282;51.440;6.938;2022-09-09T11:04:40;19.90;1.00
12436;DHT22;6282;51.440;6.938;2022-09-09T11:07:12;19.80;1.00
12436;DHT22;6282;51.440;6.938;2022-09-09T11:09:44;19.60;1.00
12436;DHT22;6282;51.440;6.938;2022-09-09T11:12:18;19.50;39.50
12436;DHT22;6282;51.440;6.938;2022-09-09T11:14:48;19.40;57.70
12436;DHT22;6282;51.440;6.938;2022-09-09T11:17:20;19.50;76.30
12436;DHT22;6282;51.440;6.938;2022-09-09T11:19:48;19.40;91.70
12436;DHT22;6282;51.440;6.938;2022-09-09T11:22:19;19.60;60.00
12436;DHT22;6282;51.440;6.938;2022-09-09T11:24:51;20.00;99.90
12436;DHT22;6282;51.440;6.938;2022-09-09T11:27:22;20.30;1.00
12436;DHT22;6282;51.440;6.938;2022-09-09T11:30:13;20.20;1.00
12436;DHT22;6282;51.440;6.938;2022-09-09T11:35:54;20.00;1.00
12436;DHT22;6282;51.440;6.938;2022-09-09T11:38:27;20.10;1.00
12436;DHT22;6282;51.440;6.938;2022-09-09T11:41:00;19.90;1.00
12436;DHT22;6282;51.440;6.938;2022-09-09T11:43:30;19.80;1.00
12436;DHT22;6282;51.440;6.938;2022-09-09T11:45:59;19.70;1.00
12436;DHT22;6282;51.440;6.938;2022-09-09T11:48:32;19.70;12.10
12436;DHT22;6282;51.440;6.938;2022-09-09T11:51:05;19.60;99.90
12436;DHT22;6282;51.440;6.938;2022-09-09T11:53:33;19.50;99.90
12436;DHT22;6282;51.440;6.938;2022-09-09T11:56:11;19.30;99.90
12436;DHT22;6282;51.440;6.938;2022-09-09T11:58:41;19.00;1.00
12436;DHT22;6282;51.440;6.938;2022-09-09T12:01:29;19.00;1.00
12436;DHT22;6282;51.440;6.938;2022-09-09T12:07:00;19.50;99.90
12436;DHT22;6282;51.440;6.938;2022-09-09T12:09:44;19.70;99.90
12436;DHT22;6282;51.440;6.938;2022-09-09T12:12:29;20.30;99.90
12436;DHT22;6282;51.440;6.938;2022-09-09T12:15:01;20.50;46.30
12436;DHT22;6282;51.440;6.938;2022-09-09T12:17:30;20.40;99.90
12436;DHT22;6282;51.440;6.938;2022-09-09T12:20:11;20.30;99.90
12436;DHT22;6282;51.440;6.938;2022-09-09T12:22:50;20.00;99.90
12436;DHT22;6282;51.440;6.938;2022-09-09T12:25:26;19.50;99.90
12436;DHT22;6282;51.440;6.938;2022-09-09T12:28:04;19.30;1.00
12436;DHT22;6282;51.440;6.938;2022-09-09T12:30:36;19.20;1.00
12436;DHT22;6282;51.440;6.938;2022-09-09T12:35:33;19.20;1.00
12436;DHT22;6282;51.440;6.938;2022-09-09T12:38:04;19.40;1.00
12436;DHT22;6282;51.440;6.938;2022-09-09T12:40:34;19.80;1.00
12436;DHT22;6282;51.440;6.938;2022-09-09T12:43:01;19.90;99.90
12436;DHT22;6282;51.440;6.938;2022-09-09T12:45:31;19.80;99.90
12436;DHT22;6282;51.440;6.938;2022-09-09T12:48:00;19.80;1.00
12436;DHT22;6282;51.440;6.938;2022-09-09T12:50:31;19.70;1.00
12436;DHT22;6282;51.440;6.938;2022-09-09T12:53:00;19.50;1.00
12436;DHT22;6282;51.440;6.938;2022-09-09T12:55:32;19.40;1.00
12436;DHT22;6282;51.440;6.938;2022-09-09T12:58:02;19.20;1.00
12436;DHT22;6282;51.440;6.938;2022-09-09T13:00:32;19.20;1.00
12436;DHT22;6282;51.440;6.938;2022-09-09T13:03:01;19.10;48.00
12436;DHT22;6282;51.440;6.938;2022-09-09T13:05:36;19.20;99.90
12436;DHT22;6282;51.440;6.938;2022-09-09T13:08:05;19.00;1.00
12436;DHT22;6282;51.440;6.938;2022-09-09T13:10:36;18.80;99.90
12436;DHT22;6282;51.440;6.938;2022-09-09T13:13:10;18.40;1.00
12436;DHT22;6282;51.440;6.938;2022-09-09T13:15:39;18.30;99.90
12436;DHT22;6282;51.440;6.938;2022-09-09T13:18:11;18.20;99.90
12436;DHT22;6282;51.440;6.938;2022-09-09T13:20:46;18.20;99.90
12436;DHT22;6282;51.440;6.938;2022-09-09T13:23:13;17.80;99.90
12436;DHT22;6282;51.440;6.938;2022-09-09T13:25:53;17.90;99.90
12436;DHT22;6282;51.440;6.938;2022-09-09T13:28:22;17.90;99.90
12436;DHT22;6282;51.440;6.938;2022-09-09T13:30:57;17.90;99.90
12436;DHT22;6282;51.440;6.938;2022-09-09T13:33:30;18.10;99.90
12436;DHT22;6282;51.440;6.938;2022-09-09T13:36:01;18.30;99.90
12436;DHT22;6282;51.440;6.938;2022-09-09T13:38:32;18.30;99.90
12436;DHT22;6282;51.440;6.938;2022-09-09T13:41:02;18.50;99.90
12436;DHT22;6282;51.440;6.938;2022-09-09T13:43:31;18.60;99.90
12436;DHT22;6282;51.440;6.938;2022-09-09T13:46:03;18.80;99.90
12436;DHT22;6282;51.440;6.938;2022-09-09T13:48:30;18.80;1.00
12436;DHT22;6282;51.440;6.938;2022-09-09T13:50:59;18.90;1.00
12436;DHT22;6282;51.440;6.938;2022-09-09T13:53:27;18.90;1.00
12436;DHT22;6282;51.440;6.938;2022-09-09T13:55:54;19.00;99.90
12436;DHT22;6282;51.440;6.938;2022-09-09T13:58:24;19.10;99.90
12436;DHT22;6282;51.440;6.938;2022-09-09T14:00:52;19.20;1.00
12436;DHT22;6282;51.440;6.938;2022-09-09T14:03:19;19.20;1.00
12436;DHT22;6282;51.440;6.938;2022-09-09T14:05:47;19.20;1.00
12436;DHT22;6282;51.440;6.938;2022-09-09T14:08:22;19.20;1.00
12436;DHT22;6282;51.440;6.938;2022-09-09T14:10:49;19.30;48.80
12436;DHT22;6282;51.440;6.938;2022-09-09T14:13:16;19.30;1.00
12436;DHT22;6282;51.440;6.938;2022-09-09T14:15:44;19.30;1.00
12436;DHT22;6282;51.440;6.938;2022-09-09T14:18:12;19.20;27.10
12436;DHT22;6282;51.440;6.938;2022-09-09T14:20:40;19.10;1.00
12436;DHT22;6282;51.440;6.938;2022-09-09T14:23:10;19.20;1.00
12436;DHT22;6282;51.440;6.938;2022-09-09T14:25:40;19.20;1.00
12436;DHT22;6282;51.440;6.938;2022-09-09T14:28:09;19.20;1.00
12436;DHT22;6282;51.440;6.938;2022-09-09T14:30:37;19.00;1.00
12436;DHT22;6282;51.440;6.938;2022-09-09T14:33:06;18.90;99.90
12436;DHT22;6282;51.440;6.938;2022-09-09T14:35:32;19.10;87.80
12436;DHT22;6282;51.440;6.938;2022-09-09T14:37:59;19.30;99.90
12436;DHT22;6282;51.440;6.938;2022-09-09T14:40:28;19.30;99.90
12436;DHT22;6282;51.440;6.938;2022-09-09T14:42:54;19.40;99.90
12436;DHT22;6282;51.440;6.938;2022-09-09T14:45:22;19.30;16.50
12436;DHT22;6282;51.440;6.938;2022-09-09T14:47:50;19.10;49.90
12436;DHT22;6282;51.440;6.938;2022-09-09T14:50:18;19.00;99.90
12436;DHT22;6282;51.440;6.938;2022-09-09T14:52:45;19.00;1.00
12436;DHT22;6282;51.440;6.938;2022-09-09T14:55:12;18.80;99.90
12436;DHT22;6282;51.440;6.938;2022-09-09T14:57:39;17.50;99.90
12436;DHT22;6282;51.440;6.938;2022-09-09T15:00:08;17.20;99.90
12436;DHT22;6282;51.440;6.938;2022-09-09T15:02:35;16.80;99.90
12436;DHT22;6282;51.440;6.938;2022-09-09T15:05:02;16.70;99.90
12436;DHT22;6282;51.440;6.938;2022-09-09T15:07:31;16.70;99.90
12436;DHT22;6282;51.440;6.938;2022-09-09T15:09:57;16.70;99.90
12436;DHT22;6282;51.440;6.938;2022-09-09T15:12:24;16.50;99.90
12436;DHT22;6282;51.440;6.938;2022-09-09T15:14:51;16.30;99.90
12436;DHT22;6282;51.440;6.938;2022-09-09T15:17:20;16.30;99.90
12436;DHT22;6282;51.440;6.938;2022-09-09T15:19:47;16.20;99.90
12436;DHT22;6282;51.440;6.938;2022-09-09T15:22:15;15.90;99.90
12436;DHT22;6282;51.440;6.938;2022-09-09T15:24:43;15.90;99.90
12436;DHT22;6282;51.440;6.938;2022-09-09T15:27:10;15.90;99.90
12436;DHT22;6282;51.440;6.938;2022-09-09T15:29:37;15.70;99.90
12436;DHT22;6282;51.440;6.938;2022-09-09T15:32:04;15.80;99.90
12436;DHT22;6282;51.440;6.938;2022-09-09T15:34:31;15.80;99.90
12436;DHT22;6282;51.440;6.938;2022-09-09T15:36:58;15.90;99.90
12436;DHT22;6282;51.440;6.938;2022-09-09T15:39:25;15.90;99.90
12436;DHT22;6282;51.440;6.938;2022-09-09T15:41:53;15.80;99.90
12436;DHT22;6282;51.440;6.938;2022-09-09T15:44:21;15.80;99.90
12436;DHT22;6282;51.440;6.938;2022-09-09T15:46:52;15.90;99.90
12436;DHT22;6282;51.440;6.938;2022-09-09T15:49:21;16.00;99.90
12436;DHT22;6282;51.440;6.938;2022-09-09T15:51:52;16.10;99.90
12436;DHT22;6282;51.440;6.938;2022-09-09T15:54:20;16.10;99.90
12436;DHT22;6282;51.440;6.938;2022-09-09T15:56:51;16.20;99.90
12436;DHT22;6282;51.440;6.938;2022-09-09T15:59:21;16.20;99.90
12436;DHT22;6282;51.440;6.938;2022-09-09T16:01:49;16.10;99.90
12436;DHT22;6282;51.440;6.938;2022-09-09T16:04:17;16.40;99.90
12436;DHT22;6282;51.440;6.938;2022-09-09T16:06:49;16.60;99.90
12436;DHT22;6282;51.440;6.938;2022-09-09T16:09:17;16.70;99.90
12436;DHT22;6282;51.440;6.938;2022-09-09T16:11:44;16.70;99.90
12436;DHT22;6282;51.440;6.938;2022-09-09T16:14:12;16.70;99.90
12436;DHT22;6282;51.440;6.938;2022-09-09T16:16:42;16.60;99.90
12436;DHT22;6282;51.440;6.938;2022-09-09T16:19:11;16.80;99.90
12436;DHT22;6282;51.440;6.938;2022-09-09T16:21:40;16.80;99.90
12436;DHT22;6282;51.440;6.938;2022-09-09T16:24:08;16.60;99.90
12436;DHT22;6282;51.440;6.938;2022-09-09T16:26:37;16.50;99.90
12436;DHT22;6282;51.440;6.938;2022-09-09T16:29:05;16.60;99.90